Terminal Aerodrome Forecast
Issued by NWS

Home | Current Version | Previous Version | Text Only | Print | Product List | Glossary On
Versions: 1 2 3 4 5 6 7 8 9 10 11 12 13
000
FTUS46 KMFR 011700
TAFLMT
TAF
KLMT 011731Z 0118/0218 16006KT P6SM SKC
     FM020000 36005KT P6SM SKC
     FM020400 00000KT P6SM SKC=

USA.gov is the U.S. government's official web portal to all federal, state and local government web resources and services.